Time;durP1;ratioP1;P1;durP2;ratioP2;P2;SDS_P1;SDS_P2;PMS_P1;PMS_P2;Temp;Humidity;BMP_temperature;BMP_pressure;BME280_temperature;BME280_humidity;BME280_pressure;Samples;Min_cycle;Max_cycle;Signal;HPM_P1;HPM_P2
2021/09/27 00:00:36;;;;;;;28.75;12.40;;;;;;;14.37;82.50;101298.95;1765374;80;21042;-60
2021/09/27 00:03:03;;;;;;;23.70;10.75;;;;;;;14.33;82.78;101301.77;1768205;81;21539;-61
2021/09/27 00:05:32;;;;;;;26.68;10.65;;;;;;;14.33;83.24;101307.17;1766907;81;21459;-61
2021/09/27 00:07:59;;;;;;;21.30;10.25;;;;;;;14.28;83.36;101307.84;1765002;79;21432;-61
2021/09/27 00:10:31;;;;;;;23.75;11.38;;;;;;;14.25;83.54;101305.73;1768831;79;20994;-61
2021/09/27 00:12:58;;;;;;;31.73;12.37;;;;;;;14.23;83.76;101307.13;1768877;81;21078;-61
2021/09/27 00:15:30;;;;;;;33.35;13.28;;;;;;;14.23;83.88;101309.83;1766276;81;21133;-61
2021/09/27 00:17:57;;;;;;;28.62;14.38;;;;;;;14.25;83.96;101309.78;1763888;81;21057;-61
2021/09/27 00:20:24;;;;;;;29.42;13.60;;;;;;;14.25;84.10;101309.78;1771133;79;20987;-61
2021/09/27 00:22:51;;;;;;;21.00;11.70;;;;;;;14.28;84.11;101309.64;1772283;81;21440;-59
2021/09/27 00:25:19;;;;;;;41.60;11.55;;;;;;;14.28;84.01;101311.88;1766790;80;20978;-61
2021/09/27 00:27:46;;;;;;;27.10;11.00;;;;;;;14.23;84.21;101317.91;1769400;81;21128;-58
2021/09/27 00:30:15;;;;;;;27.40;10.63;;;;;;;14.18;84.64;101321.28;1768873;79;21051;-59
2021/09/27 00:32:42;;;;;;;21.73;10.35;;;;;;;14.11;84.83;101323.83;1765091;80;20976;-60
2021/09/27 00:35:09;;;;;;;30.72;10.23;;;;;;;14.01;84.98;101321.48;1771073;81;20979;-61
2021/09/27 00:37:36;;;;;;;24.98;10.13;;;;;;;13.96;85.73;101322.64;1764584;81;21478;-61
2021/09/27 00:40:05;;;;;;;24.10;10.38;;;;;;;13.89;86.12;101330.09;1768913;81;21183;-59
2021/09/27 00:42:32;;;;;;;17.95;9.93;;;;;;;13.87;86.12;101325.23;1742955;81;21431;-60
2021/09/27 00:44:59;;;;;;;23.40;10.35;;;;;;;13.84;86.22;101324.01;1768521;79;21080;-60
2021/09/27 00:47:26;;;;;;;20.85;9.50;;;;;;;13.81;86.38;101324.10;1770681;81;21080;-59
2021/09/27 00:49:53;;;;;;;22.07;9.70;;;;;;;13.80;86.62;101340.76;1766905;81;21017;-59
2021/09/27 00:52:21;;;;;;;19.12;9.48;;;;;;;13.82;86.72;101336.67;1771721;81;21333;-61
2021/09/27 00:54:48;;;;;;;21.77;10.40;;;;;;;13.77;86.49;101331.45;1768521;79;21017;-61
2021/09/27 00:57:18;;;;;;;22.82;9.03;;;;;;;13.73;86.60;101338.77;1768174;79;21439;-61
2021/09/27 00:59:48;;;;;;;19.00;9.05;;;;;;;13.69;86.73;101325.01;1771829;80;21047;-61
2021/09/27 01:02:15;;;;;;;17.62;9.35;;;;;;;13.68;86.78;101334.03;1770236;80;21488;-60
2021/09/27 01:04:43;;;;;;;21.50;9.65;;;;;;;13.66;86.71;101331.87;1768204;81;21565;-60
2021/09/27 01:07:47;;;;;;;20.10;9.90;;;;;;;13.66;86.81;101339.95;1771060;81;21007;-60
2021/09/27 01:10:46;;;;;;;18.45;8.65;;;;;;;13.65;86.91;101336.84;1770110;80;21065;-60
2021/09/27 01:13:45;;;;;;;18.48;8.53;;;;;;;13.61;86.53;101329.83;1761166;79;21486;-60
2021/09/27 01:16:30;;;;;;;15.38;8.38;;;;;;;13.55;86.44;101324.66;1768016;80;21059;-58
2021/09/27 01:19:31;;;;;;;12.50;8.08;;;;;;;13.50;86.52;101334.73;1748271;80;21247;-60
2021/09/27 01:22:30;;;;;;;14.33;6.97;;;;;;;13.50;86.59;101330.69;1770809;79;21023;-59
2021/09/27 01:25:08;;;;;;;19.15;8.28;;;;;;;13.48;86.32;101339.30;1773084;79;21046;-59
2021/09/27 01:27:52;;;;;;;14.63;7.53;;;;;;;13.43;86.50;101335.42;1736666;81;21016;-58
2021/09/27 01:31:13;;;;;;;16.32;6.95;;;;;;;13.38;86.51;101330.66;1766827;80;21504;-59
2021/09/27 01:33:53;;;;;;;16.05;6.75;;;;;;;13.40;86.31;101330.12;1760779;81;21799;-62
2021/09/27 01:36:52;;;;;;;15.05;6.92;;;;;;;13.37;86.06;101334.28;1769327;81;20939;-60
2021/09/27 01:39:54;;;;;;;12.93;6.20;;;;;;;13.34;86.22;101323.15;1765991;80;21002;-58
2021/09/27 01:42:57;;;;;;;19.57;6.55;;;;;;;13.38;86.40;101321.23;1764754;80;21071;-61
2021/09/27 01:45:46;;;;;;;9.23;4.53;;;;;;;13.42;85.77;101325.55;1783195;78;21370;-61
2021/09/27 01:48:24;;;;;;;17.77;7.45;;;;;;;13.41;85.29;101320.66;1746894;81;21142;-59
2021/09/27 01:50:59;;;;;;;15.80;5.17;;;;;;;13.45;85.26;101330.41;1773182;81;21047;-60
2021/09/27 01:53:44;;;;;;;13.90;5.67;;;;;;;13.51;84.56;101333.80;1772492;80;21065;-61
2021/09/27 01:56:17;;;;;;;11.57;4.72;;;;;;;13.54;83.97;101336.37;1722186;81;21000;-62
2021/09/27 01:58:55;;;;;;;9.53;3.37;;;;;;;13.55;83.09;101344.86;1743194;81;21502;-61
2021/09/27 02:01:52;;;;;;;7.37;2.95;;;;;;;13.61;81.48;101340.12;1756996;81;21416;-61
2021/09/27 02:04:39;;;;;;;5.58;2.50;;;;;;;13.70;80.46;101351.02;1766226;80;21009;-59
2021/09/27 02:07:06;;;;;;;8.88;2.67;;;;;;;13.79;80.22;101343.50;1744179;81;21122;-60
2021/09/27 02:10:03;;;;;;;8.28;3.20;;;;;;;13.89;79.59;101353.00;1767347;81;21080;-59
2021/09/27 02:12:38;;;;;;;8.58;3.40;;;;;;;13.97;78.52;101342.78;1756740;81;21025;-59
2021/09/27 02:15:28;;;;;;;6.55;2.90;;;;;;;13.99;78.39;101346.77;1768504;79;21124;-60
2021/09/27 02:18:09;;;;;;;6.67;2.75;;;;;;;13.98;78.01;101348.58;1743484;81;20996;-61
2021/09/27 02:20:41;;;;;;;5.67;2.90;;;;;;;14.03;77.76;101350.61;1770897;81;21007;-60
2021/09/27 02:23:29;;;;;;;8.35;2.80;;;;;;;14.06;77.05;101350.97;1773120;81;21484;-58
2021/09/27 02:25:56;;;;;;;4.47;2.27;;;;;;;14.04;76.48;101349.70;1771086;80;21050;-59
2021/09/27 02:28:24;;;;;;;6.47;2.40;;;;;;;14.08;75.28;101357.17;1771288;81;21354;-60
2021/09/27 02:31:11;;;;;;;3.70;2.30;;;;;;;14.15;75.04;101354.66;1772868;81;21034;-59
2021/09/27 02:33:47;;;;;;;9.18;2.62;;;;;;;14.17;74.60;101358.63;1770187;80;20993;-59
2021/09/27 02:36:48;;;;;;;11.28;2.52;;;;;;;14.18;74.27;101353.64;1769258;79;21087;-62
2021/09/27 02:39:29;;;;;;;5.33;2.10;;;;;;;14.23;74.23;101352.98;1752170;81;21082;-59
2021/09/27 02:42:01;;;;;;;5.22;2.17;;;;;;;14.26;73.51;101350.19;1766714;80;21115;-61
2021/09/27 02:44:28;;;;;;;4.03;2.20;;;;;;;14.21;72.78;101371.05;1772783;79;20996;-58
2021/09/27 02:46:56;;;;;;;5.15;2.05;;;;;;;14.17;72.74;101365.37;1769152;80;21090;-60
2021/09/27 02:49:28;;;;;;;4.42;2.10;;;;;;;14.16;72.53;101370.36;1771008;80;21017;-61
2021/09/27 02:51:57;;;;;;;5.83;1.92;;;;;;;14.20;71.86;101363.89;1770122;81;21021;-60
2021/09/27 02:54:37;;;;;;;4.17;1.82;;;;;;;14.24;72.03;101361.95;1771119;81;21912;-59
2021/09/27 02:57:46;;;;;;;4.85;1.98;;;;;;;14.23;70.26;101367.81;1773035;79;21106;-61
2021/09/27 03:00:30;;;;;;;8.88;2.60;;;;;;;14.27;69.79;101355.98;1772921;79;21488;-60
2021/09/27 03:03:29;;;;;;;9.73;2.30;;;;;;;14.28;70.42;101361.78;1792374;79;21503;-61
2021/09/27 03:06:28;;;;;;;6.20;2.20;;;;;;;14.31;71.07;101368.84;1736013;80;21044;-60
2021/09/27 03:09:15;;;;;;;8.18;2.30;;;;;;;14.29;70.38;101363.99;1772079;80;21167;-60
2021/09/27 03:12:40;;;;;;;8.03;2.52;;;;;;;14.21;70.80;101362.95;1762515;81;20935;-61
2021/09/27 03:15:24;;;;;;;8.75;2.87;;;;;;;14.19;71.29;101371.58;1765221;80;20967;-60
2021/09/27 03:18:11;;;;;;;9.35;3.00;;;;;;;14.16;70.95;101364.96;1760564;81;21593;-59
2021/09/27 03:21:12;;;;;;;8.68;2.55;;;;;;;14.10;71.27;101368.78;1768046;80;21000;-61
2021/09/27 03:24:06;;;;;;;6.42;2.77;;;;;;;14.09;71.20;101366.16;1740009;81;21178;-61
2021/09/27 03:27:03;;;;;;;9.95;2.70;;;;;;;14.04;71.50;101367.69;1764801;81;21415;-62
2021/09/27 03:29:45;;;;;;;11.00;3.17;;;;;;;13.97;71.88;101372.92;1754704;81;21049;-62
2021/09/27 03:32:40;;;;;;;15.48;2.92;;;;;;;13.93;72.00;101372.15;1770221;79;21073;-60
2021/09/27 03:35:15;;;;;;;14.15;3.65;;;;;;;13.84;71.82;101375.22;1766786;79;21006;-61
2021/09/27 03:37:56;;;;;;;16.60;3.40;;;;;;;13.78;72.01;101375.43;1742557;82;21106;-60
2021/09/27 03:40:31;;;;;;;20.20;3.87;;;;;;;13.72;72.33;101377.43;1763354;81;21062;-60
2021/09/27 03:43:43;;;;;;;20.57;2.98;;;;;;;13.64;72.72;101378.20;1772874;80;21498;-59
2021/09/27 03:46:47;;;;;;;11.60;3.00;;;;;;;13.60;72.81;101379.27;1762165;79;20980;-60
2021/09/27 03:49:35;;;;;;;27.30;3.55;;;;;;;13.57;72.92;101378.00;1752453;81;21084;-60
2021/09/27 03:52:09;;;;;;;20.77;3.70;;;;;;;13.53;72.96;101384.45;1767937;79;21126;-60
2021/09/27 03:55:00;;;;;;;16.48;3.65;;;;;;;13.49;72.93;101376.08;1760433;81;20927;-60
2021/09/27 03:57:52;;;;;;;11.50;2.87;;;;;;;13.37;73.02;101376.89;1772954;80;21475;-61
2021/09/27 04:00:39;;;;;;;7.45;2.77;;;;;;;13.28;73.55;101382.63;1768929;80;21030;-60
2021/09/27 04:03:35;;;;;;;12.40;4.25;;;;;;;13.23;74.13;101387.31;1771965;80;21090;-61
2021/09/27 04:06:12;;;;;;;19.60;6.62;;;;;;;13.22;74.52;101385.06;1764889;81;21077;-61
2021/09/27 04:09:06;;;;;;;13.55;7.87;;;;;;;13.21;74.76;101390.05;1763958;81;21673;-61
2021/09/27 04:11:59;;;;;;;31.10;8.65;;;;;;;13.18;75.18;101388.36;1762076;81;21038;-61
2021/09/27 04:14:37;;;;;;;21.82;8.75;;;;;;;13.18;75.32;101380.28;1769812;80;20985;-61
2021/09/27 04:17:12;;;;;;;24.30;9.20;;;;;;;13.19;75.38;101390.57;1762115;80;21483;-60
2021/09/27 04:20:07;;;;;;;27.98;9.70;;;;;;;13.21;75.52;101383.80;1779706;79;21035;-60
2021/09/27 04:22:43;;;;;;;28.38;13.03;;;;;;;13.20;75.43;101383.39;1765586;81;20998;-60
2021/09/27 04:25:22;;;;;;;19.92;8.70;;;;;;;13.14;75.64;101380.44;1767861;79;21088;-61
2021/09/27 04:28:19;;;;;;;32.35;8.40;;;;;;;13.15;75.63;101391.17;1773134;80;21365;-61
2021/09/27 04:31:09;;;;;;;33.40;11.80;;;;;;;13.17;75.54;101392.44;1766351;80;21608;-60
2021/09/27 04:34:13;;;;;;;18.02;11.57;;;;;;;13.23;75.17;101393.55;1767112;81;21127;-61
2021/09/27 04:36:45;;;;;;;33.18;14.87;;;;;;;13.27;74.80;101392.54;1742477;81;21415;-60
2021/09/27 04:39:15;;;;;;;35.78;14.68;;;;;;;13.35;74.67;101393.58;1766278;79;21011;-61
2021/09/27 04:42:34;;;;;;;16.17;8.63;;;;;;;13.39;74.16;101388.52;1769471;79;21018;-59
2021/09/27 04:45:29;;;;;;;23.67;12.93;;;;;;;13.46;73.94;101393.22;1766977;79;21140;-60
2021/09/27 04:48:34;;;;;;;29.35;9.68;;;;;;;13.58;73.44;101398.63;1784369;78;21192;-60
2021/09/27 04:51:22;;;;;;;19.27;6.92;;;;;;;13.64;73.00;101398.87;1786719;80;21392;-61
2021/09/27 04:54:26;;;;;;;18.73;6.15;;;;;;;13.72;72.82;101403.03;1786854;80;21005;-59
2021/09/27 04:57:04;;;;;;;21.23;4.20;;;;;;;13.81;72.49;101396.88;1786872;80;20988;-60
2021/09/27 05:00:02;;;;;;;24.40;4.45;;;;;;;13.92;72.12;101402.73;1767222;80;21025;-60
2021/09/27 05:02:58;;;;;;;25.70;5.22;;;;;;;14.01;71.74;101405.06;1787649;80;21124;-61
2021/09/27 05:06:13;;;;;;;21.42;4.60;;;;;;;14.12;71.42;101405.12;1787185;80;21585;-60
2021/09/27 05:09:26;;;;;;;15.00;4.30;;;;;;;14.21;70.65;101410.14;1786979;80;21520;-60
2021/09/27 05:12:16;;;;;;;17.37;4.17;;;;;;;14.31;70.50;101407.96;1780768;78;20939;-61
2021/09/27 05:15:22;;;;;;;17.42;5.20;;;;;;;14.49;69.57;101407.70;1787062;79;21064;-61
2021/09/27 05:18:33;;;;;;;18.50;4.58;;;;;;;14.59;69.24;101414.95;1787064;80;21122;-60
2021/09/27 05:21:11;;;;;;;14.00;4.72;;;;;;;14.75;68.54;101414.73;1787015;80;20972;-59
2021/09/27 05:24:06;;;;;;;16.50;4.83;;;;;;;14.90;67.72;101407.80;1775099;80;21434;-60
2021/09/27 05:27:00;;;;;;;13.47;4.67;;;;;;;15.30;67.28;101413.30;1787263;80;21036;-59
2021/09/27 05:30:01;;;;;;;10.98;4.60;;;;;;;15.95;65.64;101417.61;1787079;78;21068;-61
2021/09/27 05:33:08;;;;;;;16.23;4.55;;;;;;;16.47;63.64;101417.42;1787014;80;21095;-60
2021/09/27 05:36:15;;;;;;;13.75;5.20;;;;;;;17.11;62.03;101421.88;1787527;78;21755;-61
2021/09/27 05:39:09;;;;;;;21.50;5.05;;;;;;;18.05;60.19;101428.68;1775737;80;21016;-61
2021/09/27 05:42:06;;;;;;;17.80;4.93;;;;;;;18.96;57.04;101440.72;1787307;80;21032;-59
2021/09/27 05:44:52;;;;;;;21.80;4.60;;;;;;;19.41;54.12;101428.05;1786551;80;20980;-61
2021/09/27 05:48:00;;;;;;;14.43;5.03;;;;;;;19.60;53.13;101420.12;1756482;80;21012;-62
2021/09/27 05:50:54;;;;;;;14.95;5.70;;;;;;;19.69;52.24;101424.10;1689006;83;21068;-60
2021/09/27 05:53:51;;;;;;;8.03;4.78;;;;;;;19.35;52.35;101428.44;1801584;79;21369;-62
2021/09/27 05:56:29;;;;;;;11.90;4.37;;;;;;;19.00;52.61;101436.87;1780901;78;21073;-61
2021/09/27 05:59:12;;;;;;;10.08;4.47;;;;;;;18.55;53.13;101447.13;1785677;79;21005;-61
2021/09/27 06:02:07;;;;;;;14.28;4.70;;;;;;;18.10;54.30;101442.00;1791197;79;21174;-61
2021/09/27 06:05:16;;;;;;;12.70;5.00;;;;;;;17.81;55.47;101446.68;1785977;78;21209;-62
2021/09/27 06:07:51;;;;;;;5.45;3.70;;;;;;;17.61;56.50;101432.36;1673290;84;21060;-63
2021/09/27 06:10:29;;;;;;;13.10;3.17;;;;;;;17.44;56.24;101443.23;1775752;78;21059;-61
2021/09/27 06:13:30;;;;;;;6.67;2.72;;;;;;;17.23;56.10;101442.05;1784968;79;21087;-61
2021/09/27 06:16:47;;;;;;;6.83;2.90;;;;;;;17.15;56.32;101434.34;1790532;79;21105;-61
2021/09/27 06:19:29;;;;;;;7.33;3.20;;;;;;;17.22;56.16;101450.27;1777769;79;20952;-62
2021/09/27 06:22:28;;;;;;;12.75;3.10;;;;;;;17.08;55.64;101441.02;1794883;78;21184;-61
2021/09/27 06:25:29;;;;;;;7.33;2.67;;;;;;;16.94;55.82;101451.66;1784104;78;21071;-61
2021/09/27 06:28:14;;;;;;;7.72;3.00;;;;;;;16.78;55.62;101455.14;1750609;79;21032;-60
2021/09/27 06:30:55;;;;;;;13.50;3.03;;;;;;;16.72;56.74;101454.09;1785120;78;21063;-62
2021/09/27 06:33:43;;;;;;;5.45;2.90;;;;;;;16.78;56.89;101456.49;1784781;79;21038;-62
2021/09/27 06:36:14;;;;;;;6.92;2.70;;;;;;;16.82;56.93;101455.38;1784862;78;21542;-63
2021/09/27 06:38:41;;;;;;;6.30;3.10;;;;;;;16.84;57.12;101452.11;1761550;80;21492;-61
2021/09/27 06:41:13;;;;;;;6.62;2.80;;;;;;;16.92;57.32;101456.28;1788247;78;21057;-61
2021/09/27 06:43:39;;;;;;;9.33;2.92;;;;;;;16.93;56.93;101443.14;1787027;79;21544;-63
2021/09/27 06:46:06;;;;;;;9.50;2.95;;;;;;;16.93;57.28;101447.20;1786134;78;21429;-62
2021/09/27 06:48:34;;;;;;;12.30;3.77;;;;;;;16.90;57.60;101438.25;1793080;80;21080;-60
2021/09/27 06:51:01;;;;;;;10.28;3.45;;;;;;;16.85;58.06;101454.36;1793660;78;21146;-62
2021/09/27 06:53:30;;;;;;;15.63;3.37;;;;;;;16.80;59.14;101447.81;1795852;77;21053;-61
2021/09/27 06:55:59;;;;;;;6.08;2.98;;;;;;;16.73;59.73;101449.94;1793453;78;21139;-61
2021/09/27 06:58:26;;;;;;;9.75;3.10;;;;;;;16.84;59.81;101443.13;1790508;78;21104;-62
2021/09/27 07:00:54;;;;;;;7.67;3.27;;;;;;;17.28;59.48;101448.59;1794414;78;21032;-61
2021/09/27 07:03:21;;;;;;;8.20;2.92;;;;;;;17.71;58.25;101444.95;1793973;80;21077;-61
2021/09/27 07:05:48;;;;;;;14.13;3.98;;;;;;;17.92;58.00;101443.37;1794237;78;21136;-61
2021/09/27 07:08:18;;;;;;;6.42;3.45;;;;;;;18.05;57.10;101444.96;1792213;78;21764;-61
2021/09/27 07:10:44;;;;;;;7.60;3.20;;;;;;;17.98;57.03;101453.02;1788403;78;21097;-63
2021/09/27 07:13:12;;;;;;;7.60;3.30;;;;;;;18.15;57.43;101450.75;1791401;78;21074;-62
2021/09/27 07:15:39;;;;;;;6.50;3.35;;;;;;;18.89;55.93;101454.64;1795492;78;21075;-61
2021/09/27 07:18:06;;;;;;;12.53;3.10;;;;;;;19.24;54.41;101447.23;1793392;79;21694;-64
2021/09/27 07:20:33;;;;;;;9.45;3.20;;;;;;;19.24;53.95;101456.75;1792800;78;21877;-63
2021/09/27 07:23:00;;;;;;;7.60;3.17;;;;;;;19.22;52.97;101474.50;1793318;78;21030;-62
2021/09/27 07:25:28;;;;;;;7.75;3.27;;;;;;;19.01;53.00;101472.59;1792107;78;21080;-61
2021/09/27 07:27:55;;;;;;;8.25;3.27;;;;;;;18.77;53.76;101471.69;1791192;78;21036;-62
2021/09/27 07:30:22;;;;;;;6.30;3.40;;;;;;;18.54;54.61;101477.97;1795362;79;21055;-62
2021/09/27 07:32:50;;;;;;;9.20;3.20;;;;;;;18.35;54.82;101467.75;1794224;79;22262;-63
2021/09/27 07:35:21;;;;;;;6.05;2.80;;;;;;;18.16;55.46;101482.35;1791820;78;21498;-64
2021/09/27 07:37:48;;;;;;;7.87;2.85;;;;;;;18.03;55.16;101484.87;1794314;79;21047;-62
2021/09/27 07:40:18;;;;;;;6.87;3.00;;;;;;;17.83;55.45;101477.80;1761643;80;21462;-62
2021/09/27 07:42:45;;;;;;;9.68;3.27;;;;;;;17.59;56.37;101480.87;1796173;78;21129;-62
2021/09/27 07:45:15;;;;;;;4.00;2.60;;;;;;;17.41;56.15;101464.61;1789056;78;22283;-63
2021/09/27 07:47:42;;;;;;;7.72;2.58;;;;;;;17.25;56.73;101473.14;1783705;78;21097;-61
2021/09/27 07:50:10;;;;;;;4.35;2.52;;;;;;;17.13;55.99;101487.73;1765646;80;21102;-63
2021/09/27 07:52:37;;;;;;;6.58;2.40;;;;;;;17.04;56.04;101480.95;1766681;79;21479;-62
2021/09/27 07:55:05;;;;;;;4.75;2.35;;;;;;;16.96;56.46;101479.55;1768388;80;20992;-62
2021/09/27 08:13:22;;;;;;;5.45;2.05;;;;;;;16.71;53.94;101478.06;1813867;77;20886;-55
2021/09/27 08:16:00;;;;;;;7.28;2.30;;;;;;;16.70;52.70;101477.67;1824195;76;22333;-55
2021/09/27 08:18:28;;;;;;;5.87;2.20;;;;;;;16.68;54.10;101475.48;1819959;76;21522;-55
2021/09/27 08:21:07;;;;;;;8.05;2.62;;;;;;;16.67;54.26;101481.85;1800770;78;21498;-55
2021/09/27 08:23:34;;;;;;;6.37;2.40;;;;;;;16.70;55.74;101475.82;1828809;77;21109;-54
2021/09/27 08:26:04;;;;;;;8.33;2.15;;;;;;;16.71;55.31;101479.42;1823226;77;20975;-55
2021/09/27 08:28:32;;;;;;;5.35;2.35;;;;;;;16.71;54.45;101486.19;1827484;77;21102;-56
2021/09/27 08:33:31;;;;;;;6.42;2.20;;;;;;;16.67;55.98;101476.44;1774557;79;21532;-56
2021/09/27 08:36:01;;;;;;;5.20;2.40;;;;;;;16.68;56.37;101464.66;1785990;78;22250;-55
2021/09/27 08:38:28;;;;;;;5.17;2.20;;;;;;;16.76;56.15;101465.17;1789564;78;20990;-55
2021/09/27 08:43:48;;;;;;;6.30;2.22;;;;;;;16.86;54.95;101475.92;1768518;79;21200;-55
2021/09/27 08:46:41;;;;;;;7.28;2.87;;;;;;;16.87;55.68;101466.84;1723774;81;21238;-55
2021/09/27 08:51:41;;;;;;;3.22;1.90;;;;;;;16.89;55.79;101463.58;1778992;79;22300;-56
2021/09/27 08:54:16;;;;;;;6.03;2.37;;;;;;;16.96;55.08;101463.30;1803186;78;21116;-62
2021/09/27 08:56:54;;;;;;;3.95;2.08;;;;;;;17.03;54.90;101472.89;1792459;78;21593;-62
2021/09/27 08:59:42;;;;;;;7.37;2.00;;;;;;;17.10;54.25;101463.48;1750873;79;20947;-62
2021/09/27 09:02:32;;;;;;;6.17;2.20;;;;;;;17.14;53.94;101467.81;1779975;78;20980;-62
2021/09/27 09:05:33;;;;;;;3.70;1.90;;;;;;;17.14;53.72;101465.10;1789466;78;20979;-62
2021/09/27 09:11:39;;;;;;;5.28;1.98;;;;;;;17.29;52.28;101459.82;1788895;78;20901;-66
2021/09/27 09:19:13;;;;;;;7.33;2.05;;;;;;;17.44;52.18;101450.00;1689338;83;20961;-56
2021/09/27 09:21:53;;;;;;;8.13;1.80;;;;;;;17.50;52.52;101440.67;1703820;82;21538;-56
2021/09/27 09:24:35;;;;;;;5.83;1.60;;;;;;;17.58;51.73;101449.30;1704438;82;21052;-56
2021/09/27 09:38:02;;;;;;;2.67;1.90;;;;;;;17.43;52.33;101445.08;1769185;79;20993;-57
2021/09/27 09:43:37;;;;;;;4.65;1.85;;;;;;;17.43;51.73;101441.02;1771618;79;21452;-62
2021/09/27 09:46:54;;;;;;;6.92;2.00;;;;;;;17.49;51.87;101466.03;1766073;79;21037;-62
2021/09/27 09:52:13;;;;;;;;;;;;;;;17.50;51.64;101456.94;1780194;79;21383;-63
2021/09/27 09:54:42;;;;;;;6.40;3.87;;;;;;;17.43;52.16;101455.92;1723094;79;20357;-57
2021/09/27 09:57:34;;;;;;;6.17;2.58;;;;;;;17.35;52.79;101448.65;1734143;80;20969;-55
2021/09/27 10:00:47;;;;;;;4.58;1.95;;;;;;;17.37;53.14;101445.88;1767915;79;20972;-55
2021/09/27 10:03:23;;;;;;;5.25;2.20;;;;;;;17.43;52.82;101440.13;1769153;79;21121;-57
2021/09/27 10:08:54;;;;;;;6.85;2.37;;;;;;;17.35;52.31;101433.75;1791241;78;21554;-57
2021/09/27 10:11:45;;;;;;;8.95;2.30;;;;;;;17.32;52.44;101437.98;1768177;78;26367;-55
2021/09/27 10:16:51;;;;;;;3.87;1.67;;;;;;;17.42;52.50;101423.46;1794729;78;21068;-55
2021/09/27 10:22:18;;;;;;;3.50;2.20;;;;;;;17.46;51.88;101427.75;1782898;78;20461;-56
2021/09/27 10:25:05;;;;;;;5.62;1.90;;;;;;;17.47;51.96;101422.27;1758141;80;21580;-55
2021/09/27 10:28:37;;;;;;;6.08;1.95;;;;;;;17.43;51.95;101428.81;1761790;80;20927;-55
2021/09/27 10:30:59;;;;;;;7.00;2.15;;;;;;;17.36;53.04;101411.14;1756448;80;21175;-56
2021/09/27 10:36:14;;;;;;;5.15;1.80;;;;;;;17.27;53.15;101412.96;1768665;79;21548;-64
2021/09/27 10:39:02;;;;;;;5.53;1.40;;;;;;;17.20;52.70;101416.95;1763977;80;21681;-65
2021/09/27 10:41:56;;;;;;;5.28;1.98;;;;;;;17.20;52.26;101415.11;1754655;80;21016;-64
2021/09/27 10:47:39;;;;;;;7.72;2.00;;;;;;;17.28;53.09;101412.00;1759071;79;21278;-58
2021/09/27 10:53:05;;;;;;;3.30;1.80;;;;;;;17.35;53.71;101409.84;1754905;79;21702;-56
2021/09/27 10:58:26;;;;;;;2.50;1.67;;;;;;;17.37;53.15;101399.33;1762172;79;21547;-58
2021/09/27 11:01:08;;;;;;;2.37;1.65;;;;;;;17.40;52.98;101408.66;1768687;79;21083;-56
2021/09/27 11:03:53;;;;;;;5.15;1.95;;;;;;;17.44;53.55;101402.10;1785507;78;21900;-56
2021/09/27 11:06:36;;;;;;;2.30;1.80;;;;;;;17.45;54.00;101407.92;1781425;78;21103;-56
2021/09/27 11:09:47;;;;;;;5.62;1.50;;;;;;;17.51;54.18;101403.12;1766662;79;20999;-57
2021/09/27 11:12:47;;;;;;;5.95;1.82;;;;;;;17.57;54.00;101400.06;1762240;79;21788;-56
2021/09/27 11:15:34;;;;;;;2.42;1.20;;;;;;;17.61;54.17;101397.61;1755404;79;21034;-57
2021/09/27 11:18:13;;;;;;;3.27;1.25;;;;;;;17.70;52.47;101405.23;1751662;80;21137;-56
2021/09/27 11:20:52;;;;;;;4.37;1.50;;;;;;;17.67;51.43;101399.09;1776035;79;22236;-56
2021/09/27 11:23:25;;;;;;;2.08;1.17;;;;;;;17.61;51.35;101403.03;1784018;79;20905;-56
2021/09/27 11:26:30;;;;;;;4.55;1.40;;;;;;;17.60;51.28;101398.08;1767387;79;21130;-56
2021/09/27 11:32:50;;;;;;;3.90;1.07;;;;;;;17.56;51.00;101390.19;1768810;79;21651;-56
2021/09/27 11:35:45;;;;;;;3.37;1.17;;;;;;;17.55;50.46;101381.66;1769922;79;21029;-55
2021/09/27 11:38:38;;;;;;;4.33;1.17;;;;;;;17.46;50.09;101381.20;1778112;78;21135;-57
2021/09/27 11:41:07;;;;;;;3.15;1.67;;;;;;;17.44;50.03;101387.20;1752730;80;21821;-57
2021/09/27 11:44:18;;;;;;;3.25;1.27;;;;;;;17.43;50.18;101375.95;1765702;78;21126;-55
2021/09/27 12:04:06;;;;;;;7.42;1.10;;;;;;;17.49;51.41;101371.16;1778277;79;21080;-57
2021/09/27 12:14:42;;;;;;;1.57;1.10;;;;;;;17.69;50.76;101368.23;1777842;78;20998;-56
2021/09/27 12:19:50;;;;;;;4.72;1.45;;;;;;;17.85;50.45;101366.03;1778213;79;21072;-56
2021/09/27 12:24:49;;;;;;;3.65;1.30;;;;;;;17.96;50.22;101356.78;1771528;80;21476;-56
2021/09/27 12:30:16;;;;;;;7.90;1.40;;;;;;;18.02;50.62;101353.78;1756619;79;21097;-61
2021/09/27 12:32:55;;;;;;;4.47;1.32;;;;;;;18.02;50.60;101351.06;1796618;78;21031;-62
2021/09/27 12:35:42;;;;;;;6.83;1.10;;;;;;;18.03;50.90;101355.53;1772356;79;21528;-56
2021/09/27 12:38:11;;;;;;;2.85;1.32;;;;;;;18.10;50.90;101347.03;1769949;79;21440;-56
2021/09/27 12:40:42;;;;;;;4.05;1.25;;;;;;;18.09;51.22;101357.49;1767826;79;21452;-56
2021/09/27 12:43:28;;;;;;;5.78;1.60;;;;;;;18.12;50.98;101354.59;1772509;79;21034;-56
2021/09/27 12:46:17;;;;;;;3.98;1.37;;;;;;;18.12;50.97;101343.74;1755981;79;21047;-57
2021/09/27 12:54:53;;;;;;;2.33;1.22;;;;;;;18.02;50.72;101336.14;1761195;79;21099;-56
2021/09/27 12:57:43;;;;;;;3.70;1.40;;;;;;;17.98;50.48;101335.87;1739448;79;21084;-55
2021/09/27 13:00:42;;;;;;;4.12;1.40;;;;;;;18.02;50.86;101342.92;1774356;79;21044;-55
2021/09/27 13:03:17;;;;;;;3.58;1.12;;;;;;;18.07;50.75;101351.28;1784812;79;21551;-55
2021/09/27 13:06:01;;;;;;;2.17;1.25;;;;;;;18.00;51.03;101345.29;1765144;79;21039;-54
2021/09/27 13:14:24;;;;;;;2.95;1.25;;;;;;;17.90;50.59;101337.69;1788865;78;21039;-56
2021/09/27 13:16:57;;;;;;;1.92;1.15;;;;;;;17.94;50.64;101334.30;1762428;79;22008;-62
2021/09/27 13:22:42;;;;;;;5.75;1.40;;;;;;;17.94;50.94;101338.37;1777725;78;20181;-64
2021/09/27 13:25:28;;;;;;;2.65;1.40;;;;;;;17.98;50.81;101343.15;1778264;79;21068;-67
2021/09/27 13:28:22;;;;;;;3.47;1.35;;;;;;;17.98;51.44;101345.36;1785966;78;21068;-63
2021/09/27 13:31:11;;;;;;;;;;;;;;;;;;;;;
2021/09/27 13:33:48;;;;;;;2.25;1.27;;;;;;;18.01;52.16;101343.86;1797421;78;21097;-64
2021/09/27 13:36:45;;;;;;;3.33;1.37;;;;;;;17.99;52.13;101337.62;1760341;80;21059;-64
2021/09/27 13:45:01;;;;;;;9.68;1.62;;;;;;;18.07;53.02;101333.64;1805477;78;21149;-57
2021/09/27 13:47:30;;;;;;;7.87;2.08;;;;;;;18.17;52.02;101328.95;1793140;78;21058;-65
2021/09/27 13:49:57;;;;;;;17.48;2.45;;;;;;;18.27;51.45;101323.87;1769060;79;21099;-67
2021/09/27 13:52:30;;;;;;;20.60;2.47;;;;;;;18.31;47.75;101325.43;1781044;79;21535;-57
2021/09/27 13:55:09;;;;;;;5.95;1.70;;;;;;;18.33;46.84;101322.61;1757751;79;21030;-56
2021/09/27 14:13:31;;;;;;;28.30;3.42;;;;;;;18.06;45.25;101312.41;1771667;79;21039;-56
2021/09/27 14:16:10;;;;;;;33.08;2.72;;;;;;;18.02;45.19;101314.44;1767948;78;21740;-57
2021/09/27 14:21:08;;;;;;;13.18;1.60;;;;;;;17.98;44.62;101331.80;1783669;79;21649;-56
2021/09/27 14:31:24;;;;;;;16.70;2.08;;;;;;;17.86;44.74;101326.59;1795752;78;21051;-56
2021/09/27 14:36:54;;;;;;;20.68;2.92;;;;;;;17.80;44.13;101334.23;1754859;79;21059;-55
2021/09/27 14:42:00;;;;;;;29.60;3.37;;;;;;;17.74;44.90;101330.02;1775582;79;21090;-55
2021/09/27 14:49:40;;;;;;;47.83;5.12;;;;;;;17.65;45.16;101327.80;1784025;78;22230;-62
2021/09/27 14:55:12;;;;;;;43.33;4.42;;;;;;;17.54;45.30;101331.11;1768448;79;21078;-63
2021/09/27 14:57:47;;;;;;;30.32;4.33;;;;;;;17.52;45.42;101331.67;1752195;80;21063;-56
2021/09/27 15:00:21;;;;;;;48.75;5.85;;;;;;;17.47;45.55;101331.95;1763945;80;21747;-56
2021/09/27 15:02:50;;;;;;;44.25;4.10;;;;;;;17.44;45.51;101323.50;1763693;79;21083;-56
2021/09/27 15:05:18;;;;;;;25.77;3.60;;;;;;;17.42;45.96;101328.13;1752212;79;21016;-56
2021/09/27 15:07:47;;;;;;;28.15;4.05;;;;;;;17.38;45.99;101344.63;1761701;79;21228;-57
2021/09/27 15:15:37;;;;;;;7.92;2.00;;;;;;;17.27;46.08;101334.38;1746519;80;20916;-56
2021/09/27 15:18:05;;;;;;;23.77;3.67;;;;;;;17.23;46.01;101322.81;1766766;79;21509;-55